Ames, Texas
Current Conditions -  °F | °C
As of 8:15 AM on Monday 26 Jan 2015 (Local Time) from KBMT Reporting Station
Clear Clear  
Wind Chill: 46°   Ceiling: Unl
Heat Index: 46°   Visibility: 10mi
Dew Point: 35°   Wind: 3mph
Humidity: 65%   Direction: 330°NNW
Pressure: 30.22"   Gusts: NA
Location:  30.0821°N, 94.7401°W
Report Text: KBMT 261415Z AUTO 33003KT 10SM CLR 08/02 A3022 RMK AO2 T00790016
Loading
Personal Weather Stations






























Interactive Weather Map New forecast layout! Learn more

10-Day Weather Forecast

Advertisements
Track Severe Weather on mobile